createdAt,value
2018-12-21T04:03:48.661Z,7.29
2018-12-21T04:08:48.111Z,7.29
2018-12-21T04:13:48.390Z,7.29
2018-12-21T04:18:47.872Z,7.29
2018-12-21T04:23:47.822Z,7.29
2018-12-21T04:28:48.107Z,7.29
2018-12-21T04:33:48.590Z,7.29
2018-12-21T04:38:47.788Z,7.29
2018-12-21T04:43:48.080Z,7.29
2018-12-21T04:48:48.562Z,7.29
2018-12-21T04:53:48.165Z,7.29
2018-12-21T04:58:49.057Z,7.29
2018-12-21T05:03:47.966Z,7.29
2018-12-21T05:08:48.173Z,7.29
2018-12-21T05:13:48.507Z,7.29
2018-12-21T05:18:47.922Z,7.29
2018-12-21T05:23:48.505Z,7.29
2018-12-21T05:28:47.779Z,7.29
2018-12-21T05:33:48.230Z,7.29
2018-12-21T05:38:48.409Z,7.29
2018-12-21T05:43:48.708Z,7.29
2018-12-21T05:48:48.195Z,7.29
2018-12-21T05:53:47.758Z,7.29
2018-12-21T05:58:48.057Z,7.29
2018-12-21T06:03:48.537Z,7.29
2018-12-21T06:08:47.762Z,7.29
2018-12-21T06:13:48.020Z,7.29
2018-12-21T06:18:48.492Z,7.29
2018-12-21T06:23:48.061Z,7.29
2018-12-21T06:28:48.349Z,7.29
2018-12-21T06:33:48.817Z,7.29
2018-12-21T06:38:48.047Z,7.29
2018-12-21T06:43:49.321Z,7.29
2018-12-21T06:48:48.785Z,7.29
2018-12-21T06:53:48.478Z,7.29
2018-12-21T06:58:48.728Z,7.29
2018-12-21T07:03:48.146Z,7.29
2018-12-21T07:08:48.368Z,7.29
2018-12-21T07:13:48.640Z,7.59
2018-12-21T07:18:48.119Z,7.59
2018-12-21T07:23:48.697Z,7.69
2018-12-21T07:28:49.366Z,7.69
2018-12-21T07:33:48.424Z,7.69
2018-12-21T07:38:48.631Z,7.69
2018-12-21T07:43:48.512Z,7.69
2018-12-21T07:48:48.466Z,7.69
2018-12-21T07:53:48.355Z,7.79
2018-12-21T07:58:57.506Z,7.79
2018-12-21T15:16:04.174Z,12.38
2018-12-21T15:21:03.227Z,12.38
2018-12-21T15:26:03.421Z,12.38
2018-12-21T15:31:03.792Z,12.38
2018-12-21T15:36:03.197Z,12.38
2018-12-21T15:41:03.164Z,12.38
2018-12-21T15:46:03.510Z,12.38
2018-12-21T15:51:03.943Z,12.38
2018-12-21T15:56:03.145Z,12.38
2018-12-21T16:01:03.533Z,12.38
2018-12-21T16:06:03.923Z,12.38
2018-12-21T16:11:03.497Z,12.38
2018-12-21T16:16:03.786Z,12.38
2018-12-21T16:21:03.289Z,12.38
2018-12-21T16:26:04.481Z,12.38
2018-12-21T16:31:03.852Z,12.38
2018-12-21T16:36:03.288Z,12.38
2018-12-21T16:41:03.843Z,12.38
2018-12-21T16:46:03.200Z,11.08
2018-12-21T16:51:09.006Z,11.08
2018-12-21T16:56:12.828Z,11.08
2018-12-21T17:01:03.180Z,11.08
2018-12-21T17:06:03.564Z,11.08
2018-12-21T17:11:03.166Z,10.98
2018-12-21T17:16:03.544Z,10.98
2018-12-21T17:21:03.986Z,10.98
2018-12-21T17:26:03.823Z,10.88
2018-12-21T17:31:03.651Z,10.98
2018-12-21T17:36:03.907Z,10.88
2018-12-21T17:41:03.481Z,10.88
2018-12-21T17:46:03.874Z,10.88
2018-12-21T17:51:03.272Z,10.88
2018-12-21T17:56:03.464Z,10.78
2018-12-21T18:01:03.948Z,10.78
2018-12-21T18:06:03.249Z,10.68
2018-12-21T18:11:03.803Z,10.68
2018-12-21T18:16:03.191Z,10.58
2018-12-21T18:21:03.618Z,10.58
2018-12-21T18:26:03.860Z,10.49
2018-12-21T18:31:03.372Z,10.49
2018-12-21T18:36:03.619Z,10.49
2018-12-21T18:41:03.248Z,10.49
2018-12-21T18:46:03.521Z,10.49
2018-12-21T18:51:03.964Z,10.49
2018-12-21T18:56:03.196Z,10.49
2018-12-21T19:01:03.662Z,10.49
2018-12-21T19:06:04.080Z,10.49
2018-12-21T19:11:03.540Z,10.49
2018-12-21T19:16:03.857Z,10.49
2018-12-21T19:21:03.937Z,10.49
2018-12-21T19:26:03.577Z,10.78
2018-12-21T19:31:03.943Z,10.68
2018-12-21T19:36:03.309Z,10.68
2018-12-21T19:41:03.900Z,10.68
2018-12-21T19:46:03.228Z,10.68
2018-12-21T19:51:03.663Z,10.68
2018-12-21T19:56:03.907Z,10.68
2018-12-21T20:01:03.262Z,10.78
2018-12-21T20:06:03.661Z,10.68
2018-12-21T20:11:03.369Z,10.78
2018-12-21T20:16:03.573Z,10.78
2018-12-21T20:21:04.031Z,10.68
2018-12-21T20:26:03.935Z,10.68
2018-12-21T20:31:03.608Z,10.58
2018-12-21T20:36:04.001Z,10.58
2018-12-21T20:41:03.594Z,10.58
2018-12-21T20:46:08.872Z,10.58
2018-12-21T20:51:03.358Z,10.68
2018-12-21T20:56:03.571Z,10.68
2018-12-21T21:01:03.887Z,10.68
2018-12-21T21:06:03.331Z,10.68
2018-12-21T21:11:02.955Z,10.68
2018-12-21T21:16:03.371Z,10.68
2018-12-21T21:21:03.736Z,10.58
2018-12-21T21:26:03.023Z,10.58
2018-12-21T21:31:03.279Z,10.58
2018-12-21T21:36:03.703Z,10.58
2018-12-21T21:41:03.284Z,10.49
2018-12-21T21:46:03.645Z,10.58
2018-12-21T21:51:03.043Z,10.49
2018-12-21T21:56:03.243Z,10.49
2018-12-21T22:01:03.606Z,10.49
2018-12-21T22:06:04.014Z,10.49
2018-12-21T22:11:03.577Z,10.49
2018-12-21T22:16:03.882Z,10.58
2018-12-21T22:21:03.353Z,10.58
2018-12-21T22:26:03.591Z,10.58
2018-12-21T22:31:03.885Z,10.58
2018-12-21T22:36:03.287Z,10.58
2018-12-21T22:41:03.885Z,10.58
